Time,TemperatureF,DewpointF,PressureIn,WindDirection,WindDirectionDegrees,WindSpeedMPH,WindSpeedGustMPH,Humidity,HourlyPrecipIn,Conditions,Clouds,dailyrainin,SoftwareType,DateUTC
2013-03-13 00:10:00,27.3,25.0,30.23,NE,47,15.0,15.0,90,0.00,,,0.01,weatherlink.com 1.10,2013-03-13 05:10:00,
2013-03-13 00:25:00,27.3,25.0,30.23,NE,42,15.0,18.0,90,0.00,,,0.01,weatherlink.com 1.10,2013-03-13 05:25:00,
2013-03-13 00:40:00,27.4,24.0,30.23,NNE,14,10.0,20.0,88,0.00,,,0.01,weatherlink.com 1.10,2013-03-13 05:40:00,
2013-03-13 00:55:00,27.6,24.0,30.23,NNW,345,9.0,15.0,85,0.00,,,0.00,weatherlink.com 1.10,2013-03-13 05:55:00,
2013-03-13 01:10:00,27.6,23.0,30.24,North,5,9.0,16.0,82,0.00,,,0.00,weatherlink.com 1.10,2013-03-13 06:10:00,
2013-03-13 01:25:00,27.9,22.0,30.24,ENE,62,6.0,16.0,79,0.00,,,0.00,weatherlink.com 1.10,2013-03-13 06:25:00,
2013-03-13 01:40:00,27.7,22.0,30.24,NNE,29,6.0,15.0,79,0.00,,,0.00,weatherlink.com 1.10,2013-03-13 06:40:00,
2013-03-13 01:55:00,27.6,22.0,30.24,NE,51,9.0,13.0,80,0.00,,,0.00,weatherlink.com 1.10,2013-03-13 06:55:00,
2013-03-13 02:10:00,27.6,21.0,30.24,NNW,328,6.0,14.0,77,0.00,,,0.00,weatherlink.com 1.10,2013-03-13 07:10:00,
2013-03-13 02:25:00,27.3,21.0,30.24,NNW,347,14.0,18.0,77,0.00,,,0.00,weatherlink.com 1.10,2013-03-13 07:25:00,
2013-03-13 02:40:00,26.9,21.0,30.25,North,4,7.0,17.0,77,0.00,,,0.00,weatherlink.com 1.10,2013-03-13 07:40:00,
2013-03-13 02:55:00,26.6,20.0,30.25,North,5,10.0,18.0,76,0.00,,,0.00,weatherlink.com 1.10,2013-03-13 07:55:00,
2013-03-13 03:10:00,26.3,19.0,30.25,ENE,57,10.0,14.0,75,0.00,,,0.00,weatherlink.com 1.10,2013-03-13 08:10:00,
2013-03-13 03:25:00,26.3,19.0,30.25,NE,36,7.0,12.0,75,0.00,,,0.00,weatherlink.com 1.10,2013-03-13 08:25:00,
2013-03-13 03:40:00,26.3,18.0,30.25,North,349,4.0,18.0,70,0.00,,,0.00,weatherlink.com 1.10,2013-03-13 08:40:00,
2013-03-13 03:55:00,26.3,18.0,30.25,North,355,5.0,16.0,71,0.00,,,0.00,weatherlink.com 1.10,2013-03-13 08:55:00,
2013-03-13 04:10:00,26.3,18.0,30.25,North,349,6.0,20.0,71,0.00,,,0.00,weatherlink.com 1.10,2013-03-13 09:10:00,
2013-03-13 04:25:00,26.1,17.0,30.25,NNE,27,15.0,19.0,69,0.00,,,0.00,weatherlink.com 1.10,2013-03-13 09:25:00,
2013-03-13 04:40:00,26.0,17.0,30.26,NNE,25,7.0,22.0,68,0.00,,,0.00,weatherlink.com 1.10,2013-03-13 09:40:00,
2013-03-13 04:55:00,25.7,16.0,30.27,NNE,29,9.0,25.0,67,0.00,,,0.00,weatherlink.com 1.10,2013-03-13 09:55:00,
2013-03-13 05:11:00,25.6,16.0,30.27,NE,56,14.0,21.0,66,0.00,,,0.00,weatherlink.com 1.10,2013-03-13 10:11:00,
2013-03-13 05:26:00,25.5,17.0,30.28,NNE,29,6.0,17.0,69,0.00,,,0.00,weatherlink.com 1.10,2013-03-13 10:26:00,
2013-03-13 05:41:00,25.4,17.0,30.28,North,9,3.0,15.0,70,0.00,,,0.00,weatherlink.com 1.10,2013-03-13 10:41:00,
2013-03-13 06:11:00,25.4,18.0,30.30,NE,39,11.0,14.0,72,0.00,,,0.00,weatherlink.com 1.10,2013-03-13 11:11:00,
2013-03-13 06:42:00,25.2,17.0,30.30,NNE,32,5.0,16.0,70,0.00,,,0.00,weatherlink.com 1.10,2013-03-13 11:42:00,
2013-03-13 06:56:00,25.0,17.0,30.31,NNE,23,6.0,15.0,71,0.00,,,0.00,weatherlink.com 1.10,2013-03-13 11:56:00,
2013-03-13 07:11:00,24.7,17.0,30.32,NNE,15,4.0,11.0,72,0.00,,,0.00,weatherlink.com 1.10,2013-03-13 12:11:00,
2013-03-13 07:26:00,24.4,17.0,30.32,NE,53,15.0,15.0,72,0.00,,,0.00,weatherlink.com 1.10,2013-03-13 12:26:00,
2013-03-13 07:41:00,24.3,16.0,30.33,NNW,344,6.0,16.0,72,0.00,,,0.00,weatherlink.com 1.10,2013-03-13 12:41:00,
2013-03-13 07:56:00,24.3,16.0,30.34,NE,56,13.0,17.0,72,0.00,,,0.00,weatherlink.com 1.10,2013-03-13 12:56:00,
2013-03-13 08:11:00,24.4,16.0,30.34,NNE,29,7.0,16.0,71,0.00,,,0.00,weatherlink.com 1.10,2013-03-13 13:11:00,
2013-03-13 08:41:00,24.6,16.0,30.35,NNW,335,6.0,18.0,70,0.00,,,0.00,weatherlink.com 1.10,2013-03-13 13:41:00,
2013-03-13 08:56:00,25.0,17.0,30.36,NNE,32,8.0,16.0,72,0.00,,,0.00,weatherlink.com 1.10,2013-03-13 13:56:00,
2013-03-13 09:11:00,25.2,17.0,30.37,NE,47,12.0,17.0,71,0.00,,,0.00,weatherlink.com 1.10,2013-03-13 14:11:00,
2013-03-13 09:26:00,25.4,17.0,30.38,North,1,7.0,19.0,71,0.00,,,0.00,weatherlink.com 1.10,2013-03-13 14:26:00,
2013-03-13 09:41:00,25.6,17.0,30.38,NNE,17,13.0,19.0,69,0.00,,,0.00,weatherlink.com 1.10,2013-03-13 14:41:00,
2013-03-13 09:56:00,26.1,17.0,30.39,NE,42,8.0,20.0,69,0.00,,,0.00,weatherlink.com 1.10,2013-03-13 14:56:00,
2013-03-13 10:11:00,26.1,16.0,30.39,NE,40,12.0,21.0,67,0.00,,,0.00,weatherlink.com 1.10,2013-03-13 15:11:00,
2013-03-13 10:26:00,27.0,17.0,30.40,NE,36,15.0,18.0,66,0.00,,,0.00,weatherlink.com 1.10,2013-03-13 15:26:00,
2013-03-13 10:41:00,27.2,16.0,30.41,NE,39,14.0,21.0,63,0.00,,,0.00,weatherlink.com 1.10,2013-03-13 15:41:00,
2013-03-13 10:57:00,27.6,16.0,30.41,NNE,32,15.0,20.0,61,0.00,,,0.00,weatherlink.com 1.10,2013-03-13 15:57:00,
2013-03-13 11:12:00,28.2,16.0,30.42,NNE,32,18.0,22.0,61,0.00,,,0.00,weatherlink.com 1.10,2013-03-13 16:12:00,
2013-03-13 11:27:00,28.8,16.0,30.43,NE,51,9.0,18.0,59,0.00,,,0.00,weatherlink.com 1.10,2013-03-13 16:27:00,
2013-03-13 11:42:00,28.3,16.0,30.43,NE,48,11.0,24.0,61,0.00,,,0.00,weatherlink.com 1.10,2013-03-13 16:42:00,
2013-03-13 11:57:00,30.0,18.0,30.43,NNE,25,9.0,19.0,62,0.00,,,0.00,weatherlink.com 1.10,2013-03-13 16:57:00,
2013-03-13 12:12:00,29.3,16.0,30.44,NE,36,14.0,21.0,59,0.00,,,0.00,weatherlink.com 1.10,2013-03-13 17:12:00,
2013-03-13 12:27:00,29.6,16.0,30.44,ENE,65,19.0,22.0,58,0.00,,,0.00,weatherlink.com 1.10,2013-03-13 17:27:00,
2013-03-13 12:57:00,31.2,17.0,30.45,NNE,28,12.0,18.0,57,0.00,,,0.00,weatherlink.com 1.10,2013-03-13 17:57:00,
2013-03-13 13:12:00,30.5,16.0,30.45,North,349,12.0,23.0,56,0.00,,,0.00,weatherlink.com 1.10,2013-03-13 18:12:00,
2013-03-13 13:27:00,31.6,17.0,30.45,NE,37,11.0,20.0,54,0.00,,,0.00,weatherlink.com 1.10,2013-03-13 18:27:00,
2013-03-13 13:42:00,32.3,15.0,30.44,North,9,16.0,20.0,50,0.00,,,0.00,weatherlink.com 1.10,2013-03-13 18:42:00,
2013-03-13 13:57:00,32.1,16.0,30.44,NNE,18,6.0,19.0,51,0.00,,,0.00,weatherlink.com 1.10,2013-03-13 18:57:00,
2013-03-13 14:12:00,33.6,16.0,30.44,North,349,5.0,16.0,48,0.00,,,0.00,weatherlink.com 1.10,2013-03-13 19:12:00,
2013-03-13 14:27:00,33.6,15.0,30.44,NE,36,13.0,20.0,47,0.00,,,0.00,weatherlink.com 1.10,2013-03-13 19:27:00,
2013-03-13 14:42:00,34.2,14.0,30.44,NE,41,12.0,17.0,43,0.00,,,0.00,weatherlink.com 1.10,2013-03-13 19:42:00,
2013-03-13 14:57:00,34.4,12.0,30.43,NNW,343,6.0,15.0,40,0.00,,,0.00,weatherlink.com 1.10,2013-03-13 19:57:00,
2013-03-13 15:12:00,34.5,14.0,30.43,East,79,13.0,15.0,43,0.00,,,0.00,weatherlink.com 1.10,2013-03-13 20:12:00,
2013-03-13 15:27:00,35.5,15.0,30.43,NNW,340,2.0,13.0,44,0.00,,,0.00,weatherlink.com 1.10,2013-03-13 20:27:00,
2013-03-13 15:42:00,36.3,18.0,30.43,NE,56,4.0,14.0,47,0.00,,,0.00,weatherlink.com 1.10,2013-03-13 20:42:00,
2013-03-13 15:57:00,36.4,19.0,30.42,NNE,33,1.0,11.0,49,0.00,,,0.00,weatherlink.com 1.10,2013-03-13 20:57:00,
2013-03-13 16:12:00,37.1,19.0,30.42,NW,325,9.0,12.0,48,0.00,,,0.00,weatherlink.com 1.10,2013-03-13 21:12:00,
2013-03-13 16:27:00,36.8,19.0,30.42,ENE,62,2.0,13.0,49,0.00,,,0.00,weatherlink.com 1.10,2013-03-13 21:27:00,
2013-03-13 16:43:00,36.7,19.0,30.42,NW,325,9.0,10.0,49,0.00,,,0.00,weatherlink.com 1.10,2013-03-13 21:43:00,
2013-03-13 16:57:00,37.1,19.0,30.42,NNE,25,4.0,14.0,48,0.00,,,0.00,weatherlink.com 1.10,2013-03-13 21:57:00,
2013-03-13 17:12:00,37.5,19.0,30.42,ENE,70,8.0,10.0,47,0.00,,,0.00,weatherlink.com 1.10,2013-03-13 22:12:00,
2013-03-13 17:27:00,37.2,18.0,30.41,North,359,5.0,12.0,47,0.00,,,0.00,weatherlink.com 1.10,2013-03-13 22:27:00,
2013-03-13 17:42:00,37.1,19.0,30.41,ENE,65,6.0,10.0,48,0.00,,,0.00,weatherlink.com 1.10,2013-03-13 22:42:00,
2013-03-13 17:57:00,36.9,19.0,30.41,ENE,60,6.0,10.0,48,0.00,,,0.00,weatherlink.com 1.10,2013-03-13 22:57:00,
2013-03-13 18:13:00,37.3,19.0,30.41,NNE,12,4.0,7.0,47,0.00,,,0.00,weatherlink.com 1.10,2013-03-13 23:13:00,
2013-03-13 18:27:00,37.2,18.0,30.41,NNE,16,3.0,6.0,47,0.00,,,0.00,weatherlink.com 1.10,2013-03-13 23:27:00,
2013-03-13 18:42:00,36.5,18.0,30.41,ENE,63,3.0,7.0,48,0.00,,,0.00,weatherlink.com 1.10,2013-03-13 23:42:00,
2013-03-13 18:57:00,35.8,18.0,30.41,NE,51,1.0,7.0,49,0.00,,,0.00,weatherlink.com 1.10,2013-03-13 23:57:00,
2013-03-13 19:12:00,34.9,18.0,30.41,NE,40,2.0,4.0,51,0.00,,,0.00,weatherlink.com 1.10,2013-03-14 00:12:00,
2013-03-13 19:27:00,34.3,18.0,30.41,NE,44,2.0,3.0,51,0.00,,,0.00,weatherlink.com 1.10,2013-03-14 00:27:00,
2013-03-13 19:42:00,33.7,18.0,30.41,NNE,26,1.0,2.0,52,0.00,,,0.00,weatherlink.com 1.10,2013-03-14 00:42:00,
2013-03-13 19:57:00,33.6,18.0,30.42,NE,49,3.0,5.0,52,0.00,,,0.00,weatherlink.com 1.10,2013-03-14 00:57:00,
2013-03-13 20:12:00,33.5,18.0,30.41,NNE,21,0.0,4.0,53,0.00,,,0.00,weatherlink.com 1.10,2013-03-14 01:12:00,
2013-03-13 20:27:00,32.9,18.0,30.41,North,5,1.0,1.0,55,0.00,,,0.00,weatherlink.com 1.10,2013-03-14 01:27:00,
2013-03-13 20:42:00,32.7,19.0,30.41,NNE,15,1.0,2.0,57,0.00,,,0.00,weatherlink.com 1.10,2013-03-14 01:42:00,
2013-03-13 20:57:00,32.7,19.0,30.41,NE,43,2.0,2.0,57,0.00,,,0.00,weatherlink.com 1.10,2013-03-14 01:57:00,
2013-03-13 21:12:00,32.7,19.0,30.42,NE,50,3.0,4.0,57,0.00,,,0.00,weatherlink.com 1.10,2013-03-14 02:12:00,
2013-03-13 21:27:00,32.7,18.0,30.43,NE,43,2.0,4.0,56,0.00,,,0.00,weatherlink.com 1.10,2013-03-14 02:27:00,
2013-03-13 21:42:00,32.5,18.0,30.42,NNE,26,1.0,2.0,56,0.00,,,0.00,weatherlink.com 1.10,2013-03-14 02:42:00,
2013-03-13 21:57:00,32.5,18.0,30.42,NE,40,1.0,2.0,56,0.00,,,0.00,weatherlink.com 1.10,2013-03-14 02:57:00,
2013-03-13 22:12:00,32.5,18.0,30.41,NE,40,1.0,1.0,56,0.00,,,0.00,weatherlink.com 1.10,2013-03-14 03:12:00,
2013-03-13 22:28:00,31.9,18.0,30.42,NE,36,1.0,1.0,57,0.00,,,0.00,weatherlink.com 1.10,2013-03-14 03:28:00,
2013-03-13 22:42:00,31.7,18.0,30.42,North,8,1.0,2.0,58,0.00,,,0.00,weatherlink.com 1.10,2013-03-14 03:42:00,
2013-03-13 22:58:00,31.0,18.0,30.43,NNW,340,1.0,2.0,59,0.00,,,0.00,weatherlink.com 1.10,2013-03-14 03:58:00,
2013-03-13 23:13:00,30.8,19.0,30.42,NNW,339,1.0,1.0,62,0.00,,,0.00,weatherlink.com 1.10,2013-03-14 04:13:00,
2013-03-13 23:28:00,31.1,19.0,30.42,NNW,327,1.0,1.0,61,0.00,,,0.00,weatherlink.com 1.10,2013-03-14 04:28:00,
2013-03-13 23:43:00,30.8,19.0,30.42,NW,314,1.0,2.0,61,0.00,,,0.00,weatherlink.com 1.10,2013-03-14 04:43:00,
2013-03-13 23:57:00,30.9,19.0,30.42,NW,314,1.0,1.0,61,0.00,,,0.00,weatherlink.com 1.10,2013-03-14 04:57:00,